Terminal Aerodrome Forecast
Issued by NWS

Home | Current Version | Previous Version | Text Only | Print | Product List | Glossary On
Versions: 1 2 3 4 5 6 7 8 9 10 11 12 13 14 15 16 17 18 19 20 21 22 23 24 25 26 27 28 29 30 31 32 33 34 35
000
FTUS42 KCAE 101100
TAFCUB
TAF
KCUB 101130Z 1012/1112 00000KT 3SM BR SCT100
     FM101300 VRB04KT P6SM SCT035
     FM101800 24006KT P6SM VCSH BKN050
      TEMPO 1021/1024 TSRA BKN050CB
     FM110200 VRB05KT P6SM BKN100=

USA.gov is the U.S. government's official web portal to all federal, state and local government web resources and services.